createdAt,value
2023-05-23T00:02:03.337Z,17.37
2023-05-23T00:07:05.153Z,15.18
2023-05-23T00:12:07.234Z,14.17
2023-05-23T00:17:10.844Z,15.00
2023-05-23T00:22:13.258Z,17.55
2023-05-23T00:27:15.041Z,15.75
2023-05-23T00:32:16.982Z,17.77
2023-05-23T00:37:18.718Z,15.80
2023-05-23T00:42:20.434Z,19.25
2023-05-23T00:47:22.235Z,17.13
2023-05-23T00:52:24.760Z,17.70
2023-05-23T00:57:26.581Z,18.60
2023-05-23T01:02:32.277Z,17.92
2023-05-23T01:07:34.068Z,18.17
2023-05-23T01:13:20.428Z,17.98
2023-05-23T01:18:33.562Z,19.13
2023-05-23T01:24:07.992Z,16.08
2023-05-23T01:29:26.906Z,17.83
2023-05-23T01:34:30.492Z,19.55
2023-05-23T01:39:33.925Z,21.65
2023-05-23T01:44:36.422Z,20.48
2023-05-23T01:54:42.579Z,17.38
2023-05-23T01:59:45.425Z,19.65
2023-05-23T02:04:49.462Z,16.92
2023-05-23T02:09:54.417Z,18.98
2023-05-23T02:19:59.001Z,16.52
2023-05-23T02:25:00.742Z,18.70
2023-05-23T02:30:02.484Z,16.98
2023-05-23T02:35:05.557Z,17.47
2023-05-23T02:40:08.066Z,18.40
2023-05-23T02:45:11.377Z,18.88
2023-05-23T02:50:13.846Z,18.55
2023-05-23T02:55:15.769Z,19.38
2023-05-23T03:00:21.655Z,21.77
2023-05-23T03:05:28.587Z,22.92
2023-05-23T03:10:30.700Z,21.27
2023-05-23T03:15:32.584Z,21.73
2023-05-23T03:20:35.650Z,20.85
2023-05-23T03:25:37.493Z,26.40
2023-05-23T03:30:40.434Z,21.65
2023-05-23T03:35:42.587Z,21.47
2023-05-23T03:40:44.635Z,25.92
2023-05-23T03:45:47.545Z,24.83
2023-05-23T03:50:52.272Z,24.23
2023-05-23T03:55:54.286Z,25.93
2023-05-23T04:00:56.724Z,23.10
2023-05-23T04:06:01.020Z,27.93
2023-05-23T04:11:03.411Z,24.27
2023-05-23T04:16:10.845Z,22.23
2023-05-23T04:26:24.126Z,24.80
2023-05-23T04:31:28.205Z,25.13
2023-05-23T04:36:30.302Z,23.67
2023-05-23T04:41:32.541Z,26.03
2023-05-23T04:46:34.442Z,30.42
2023-05-23T04:51:47.370Z,32.15
2023-05-23T04:56:56.393Z,28.52
2023-05-23T05:02:00.309Z,30.80
2023-05-23T05:07:04.206Z,32.03
2023-05-23T05:12:06.458Z,28.77
2023-05-23T05:17:08.743Z,29.85
2023-05-23T05:22:29.689Z,28.38
2023-05-23T05:27:31.596Z,26.23
2023-05-23T05:32:33.798Z,27.17
2023-05-23T05:37:37.024Z,27.33
2023-05-23T05:42:39.606Z,28.15
2023-05-23T05:47:41.906Z,28.45
2023-05-23T05:52:43.928Z,27.65
2023-05-23T05:57:47.073Z,27.65
2023-05-23T06:02:51.973Z,27.73
2023-05-23T06:08:05.063Z,32.42
2023-05-23T06:13:06.996Z,28.07
2023-05-23T06:18:09.686Z,27.70
2023-05-23T06:23:11.880Z,27.98
2023-05-23T06:28:15.430Z,28.77
2023-05-23T06:33:17.348Z,27.83
2023-05-23T06:38:19.408Z,29.73
2023-05-23T06:43:21.176Z,29.70
2023-05-23T06:48:35.306Z,29.48
2023-05-23T06:53:37.079Z,31.27
2023-05-23T06:58:39.404Z,26.40
2023-05-23T07:03:44.409Z,27.13
2023-05-23T07:08:47.274Z,24.38
2023-05-23T07:13:50.776Z,27.17
2023-05-23T07:19:01.852Z,27.17
2023-05-23T07:24:06.065Z,27.27
2023-05-23T07:34:10.373Z,24.65
2023-05-23T07:39:25.853Z,26.73
2023-05-23T07:44:29.196Z,28.95
2023-05-23T07:49:31.165Z,27.77
2023-05-23T07:54:33.882Z,24.45
2023-05-23T07:59:38.544Z,26.88
2023-05-23T08:04:40.920Z,24.58
2023-05-23T08:09:43.331Z,22.40
2023-05-23T08:14:54.531Z,28.08
2023-05-23T08:20:05.260Z,24.77
2023-05-23T08:25:08.359Z,22.60
2023-05-23T08:30:13.348Z,23.38
2023-05-23T08:35:15.358Z,19.95
2023-05-23T08:40:22.300Z,24.33
2023-05-23T08:45:37.349Z,20.77
2023-05-23T08:50:40.937Z,23.33
2023-05-23T08:55:43.144Z,16.77
2023-05-23T09:00:45.967Z,25.63
2023-05-23T09:05:50.298Z,22.60
2023-05-23T09:10:54.711Z,22.88
2023-05-23T09:16:09.285Z,17.85
2023-05-23T09:21:24.714Z,18.48
2023-05-23T09:26:41.304Z,20.75
2023-05-23T09:31:44.348Z,22.47
2023-05-23T09:36:46.781Z,19.92
2023-05-23T09:41:49.449Z,15.48
2023-05-23T09:46:54.540Z,19.73
2023-05-23T09:52:01.313Z,18.60
2023-05-23T09:57:06.107Z,16.33
2023-05-23T10:02:12.031Z,18.10
2023-05-23T10:07:18.063Z,15.48
2023-05-23T10:12:23.209Z,15.82
2023-05-23T10:17:33.370Z,19.67
2023-05-23T10:22:37.010Z,19.23
2023-05-23T10:27:39.689Z,15.95
2023-05-23T10:32:42.777Z,20.60
2023-05-23T10:37:57.075Z,16.63
2023-05-23T10:43:10.635Z,17.77
2023-05-23T10:48:33.079Z,22.23
2023-05-23T10:53:54.593Z,15.47
2023-05-23T10:58:58.393Z,16.23
2023-05-23T11:04:05.533Z,19.80
2023-05-23T11:09:12.083Z,22.23
2023-05-23T11:14:13.961Z,21.20
2023-05-23T11:19:18.807Z,16.60
2023-05-23T11:24:20.951Z,16.30
2023-05-23T11:29:22.864Z,15.20
2023-05-23T11:34:27.756Z,18.47
2023-05-23T11:39:29.531Z,20.88
2023-05-23T11:44:31.232Z,15.37
2023-05-23T11:49:35.650Z,15.50
2023-05-23T11:54:41.207Z,13.45
2023-05-23T11:59:44.434Z,14.65
2023-05-23T12:04:46.200Z,15.65
2023-05-23T12:09:48.236Z,15.80
2023-05-23T12:14:50.197Z,15.38
2023-05-23T12:19:53.015Z,16.08
2023-05-23T12:24:58.250Z,17.55
2023-05-23T12:30:09.513Z,14.55
2023-05-23T12:35:14.022Z,15.82
2023-05-23T12:40:18.027Z,15.73
2023-05-23T12:45:24.761Z,15.52
2023-05-23T12:50:26.525Z,15.73
2023-05-23T12:55:28.298Z,18.83
2023-05-23T13:00:30.071Z,10.90
2023-05-23T13:05:31.974Z,13.13
2023-05-23T13:10:33.731Z,14.20
2023-05-23T13:15:35.507Z,12.13
2023-05-23T13:20:37.733Z,11.50
2023-05-23T13:25:39.582Z,12.63
2023-05-23T13:30:43.511Z,12.90
2023-05-23T13:35:49.244Z,13.25
2023-05-23T13:40:51.807Z,13.27
2023-05-23T13:53:58.589Z,8.20
2023-05-23T13:59:01.156Z,9.63
2023-05-23T14:04:04.747Z,11.73
2023-05-23T14:09:07.964Z,7.15
2023-05-23T14:14:15.567Z,7.97
2023-05-23T14:19:17.483Z,9.47
2023-05-23T14:24:19.500Z,8.63
2023-05-23T14:29:21.465Z,9.73
2023-05-23T14:34:23.163Z,9.03
2023-05-23T14:39:25.647Z,8.10
2023-05-23T14:44:28.116Z,5.85
2023-05-23T14:54:33.061Z,8.45
2023-05-23T14:59:35.215Z,8.77
2023-05-23T15:04:37.331Z,6.00
2023-05-23T15:09:39.470Z,6.90
2023-05-23T15:14:43.288Z,7.50
2023-05-23T15:19:46.065Z,8.25
2023-05-23T15:24:47.942Z,6.10
2023-05-23T15:29:49.716Z,6.27
2023-05-23T15:34:51.795Z,5.70
2023-05-23T15:39:53.584Z,5.67
2023-05-23T15:44:55.392Z,5.70
2023-05-23T15:49:57.137Z,9.47
2023-05-23T15:54:58.995Z,8.07
2023-05-23T16:00:00.973Z,6.57
2023-05-23T16:05:02.744Z,4.90
2023-05-23T16:10:05.215Z,6.20
2023-05-23T16:15:07.610Z,4.50
2023-05-23T16:20:09.908Z,4.88
2023-05-23T16:25:11.723Z,6.10
2023-05-23T16:30:13.639Z,3.70
2023-05-23T16:35:15.604Z,3.83
2023-05-23T16:40:19.478Z,5.03
2023-05-23T16:45:21.638Z,7.20
2023-05-23T16:50:23.402Z,4.00
2023-05-23T16:55:25.436Z,4.50
2023-05-23T17:00:27.238Z,3.97
2023-05-23T17:05:29.233Z,4.67
2023-05-23T17:10:31.099Z,4.80
2023-05-23T17:15:32.878Z,4.97
2023-05-23T17:20:34.757Z,4.87
2023-05-23T17:25:37.248Z,3.53
2023-05-23T17:30:39.009Z,5.13
2023-05-23T17:35:40.765Z,4.93
2023-05-23T17:40:42.919Z,4.13
2023-05-23T17:45:45.134Z,4.35
2023-05-23T17:50:47.752Z,5.43
2023-05-23T17:55:49.458Z,4.72
2023-05-23T18:00:51.895Z,4.63
2023-05-23T18:10:55.609Z,4.38
2023-05-23T18:15:57.474Z,7.75
2023-05-23T18:20:59.270Z,5.47
2023-05-23T18:26:01.004Z,5.00
2023-05-23T18:31:02.869Z,5.60
2023-05-23T18:36:04.770Z,6.00
2023-05-23T18:41:06.663Z,4.40
2023-05-23T18:46:08.830Z,4.27
2023-05-23T18:51:12.220Z,4.43
2023-05-23T18:56:13.951Z,4.90
2023-05-23T19:01:16.627Z,5.53
2023-05-23T19:06:18.709Z,6.03
2023-05-23T19:11:20.455Z,5.30
2023-05-23T19:16:22.270Z,4.78
2023-05-23T19:21:24.328Z,7.47
2023-05-23T19:26:26.040Z,6.03
2023-05-23T19:31:28.419Z,4.13
2023-05-23T19:36:30.362Z,5.38
2023-05-23T19:41:35.433Z,4.07
2023-05-23T19:46:37.708Z,4.60
2023-05-23T19:51:39.517Z,4.47
2023-05-23T20:01:44.171Z,5.57
2023-05-23T20:06:46.380Z,4.77
2023-05-23T20:11:48.243Z,4.32
2023-05-23T20:16:50.023Z,5.47
2023-05-23T20:21:51.846Z,11.40
2023-05-23T20:26:53.645Z,5.45
2023-05-23T20:31:56.092Z,5.83
2023-05-23T20:36:57.828Z,6.80
2023-05-23T20:41:59.711Z,5.93
2023-05-23T20:47:02.376Z,5.77
2023-05-23T20:52:05.448Z,5.20
2023-05-23T20:57:07.353Z,4.95
2023-05-23T21:02:09.118Z,5.03
2023-05-23T21:07:11.131Z,4.57
2023-05-23T21:12:12.918Z,4.80
2023-05-23T21:17:16.101Z,5.10
2023-05-23T21:22:17.935Z,5.68
2023-05-23T21:27:19.669Z,5.78
2023-05-23T21:32:22.335Z,4.38
2023-05-23T21:37:24.443Z,5.33
2023-05-23T21:42:26.426Z,4.57
2023-05-23T21:47:28.379Z,7.45
2023-05-23T21:52:30.745Z,4.23
2023-05-23T21:57:32.500Z,4.53
2023-05-23T22:02:34.356Z,5.33
2023-05-23T22:07:36.634Z,5.60
2023-05-23T22:12:38.848Z,4.32
2023-05-23T22:17:43.710Z,5.45
2023-05-23T22:22:45.803Z,4.95
2023-05-23T22:27:47.650Z,8.90
2023-05-23T22:32:49.728Z,8.47
2023-05-23T22:37:51.606Z,4.10
2023-05-23T22:42:53.331Z,7.72
2023-05-23T22:47:55.111Z,5.15
2023-05-23T22:52:58.310Z,5.40
2023-05-23T22:58:00.454Z,6.43
2023-05-23T23:03:02.741Z,6.13
2023-05-23T23:08:06.019Z,5.55
2023-05-23T23:13:07.762Z,5.45
2023-05-23T23:18:09.826Z,5.50
2023-05-23T23:23:11.699Z,6.13
2023-05-23T23:28:13.410Z,6.05
2023-05-23T23:33:15.632Z,6.75
2023-05-23T23:38:18.414Z,7.05
2023-05-23T23:48:21.948Z,6.13
2023-05-23T23:53:23.789Z,5.63
2023-05-23T23:58:26.313Z,7.90
